Time;durP1;ratioP1;P1;durP2;ratioP2;P2;SDS_P1;SDS_P2;PMS_P1;PMS_P2;Temp;Humidity;BMP_temperature;BMP_pressure;BME280_temperature;BME280_humidity;BME280_pressure;Samples;Min_cycle;Max_cycle;Signal;HPM_P1;HPM_P2
2024/03/22 00:01:48;;;;;;;19.95;11.90;;;10.40;99.90;;;;;;4946626;28;20039;-89
2024/03/22 00:04:14;;;;;;;17.05;10.23;;;10.40;99.90;;;;;;4943737;28;20038;-91
2024/03/22 00:06:42;;;;;;;18.17;10.60;;;10.50;99.90;;;;;;4940254;28;20033;-91
2024/03/22 00:09:09;;;;;;;19.27;11.43;;;10.50;99.90;;;;;;4953575;28;20495;-91
2024/03/22 00:11:34;;;;;;;17.05;10.15;;;10.50;99.90;;;;;;4937844;28;20058;-91
2024/03/22 00:14:02;;;;;;;18.15;10.88;;;10.50;99.90;;;;;;4955012;28;20047;-91
2024/03/22 00:16:27;;;;;;;20.38;11.02;;;10.50;99.90;;;;;;4927366;28;20062;-91
2024/03/22 00:18:53;;;;;;;17.58;10.40;;;10.60;99.90;;;;;;4944344;28;20495;-92
2024/03/22 00:21:19;;;;;;;18.10;10.82;;;10.60;99.90;;;;;;4957163;28;20051;-91
2024/03/22 00:23:48;;;;;;;18.17;10.65;;;10.60;99.90;;;;;;4925176;28;20054;-92
2024/03/22 00:26:13;;;;;;;19.17;10.63;;;10.60;99.90;;;;;;4940316;28;20040;-91
2024/03/22 00:28:39;;;;;;;19.20;11.18;;;10.70;99.90;;;;;;4940339;28;20042;-91
2024/03/22 00:31:05;;;;;;;23.20;12.88;;;10.60;99.90;;;;;;4932204;28;20042;-90
2024/03/22 00:33:31;;;;;;;23.60;13.90;;;10.70;99.90;;;;;;4928050;28;20046;-92
2024/03/22 00:35:57;;;;;;;21.85;12.57;;;10.70;99.90;;;;;;4925689;29;20059;-91
2024/03/22 00:38:23;;;;;;;19.77;11.95;;;10.70;99.90;;;;;;4931135;29;20039;-89
2024/03/22 00:40:49;;;;;;;19.08;11.80;;;10.70;99.90;;;;;;4924692;28;20043;-89
2024/03/22 00:43:14;;;;;;;18.95;11.18;;;10.70;99.90;;;;;;4926820;28;20038;-89
2024/03/22 00:45:40;;;;;;;21.42;11.65;;;10.70;99.90;;;;;;4941938;28;20040;-89
2024/03/22 00:48:07;;;;;;;20.58;11.10;;;10.70;99.90;;;;;;4946402;28;20039;-89
2024/03/22 00:50:32;;;;;;;18.90;9.98;;;10.80;99.90;;;;;;4943540;29;20122;-90
2024/03/22 00:52:58;;;;;;;21.40;12.63;;;10.80;99.90;;;;;;4949118;29;20096;-89
2024/03/22 00:55:24;;;;;;;18.52;10.90;;;10.80;99.90;;;;;;4950229;28;20501;-89
2024/03/22 00:57:50;;;;;;;23.02;13.38;;;10.80;99.90;;;;;;4940625;29;20035;-89
2024/03/22 01:00:16;;;;;;;19.40;11.48;;;10.80;99.90;;;;;;4931254;28;20042;-89
2024/03/22 01:02:43;;;;;;;19.45;11.23;;;10.80;99.90;;;;;;4965260;28;20498;-89
2024/03/22 01:05:08;;;;;;;18.90;10.93;;;10.80;99.90;;;;;;4957678;28;20042;-90
2024/03/22 01:07:36;;;;;;;20.30;12.07;;;10.80;99.90;;;;;;4939316;28;20039;-89
2024/03/22 01:10:03;;;;;;;19.02;11.52;;;10.80;99.90;;;;;;4952095;28;20499;-89
2024/03/22 01:12:28;;;;;;;22.80;12.25;;;10.80;99.90;;;;;;4949326;28;20051;-89
2024/03/22 01:14:54;;;;;;;24.17;12.85;;;10.90;99.90;;;;;;4928212;28;20414;-89
2024/03/22 01:17:20;;;;;;;20.65;11.98;;;10.90;99.90;;;;;;4931491;28;20046;-89
2024/03/22 01:19:45;;;;;;;20.00;12.25;;;10.80;99.90;;;;;;4941101;28;20042;-89
2024/03/22 01:22:11;;;;;;;21.63;11.85;;;10.90;99.90;;;;;;4946407;29;20047;-90
2024/03/22 01:24:37;;;;;;;19.80;11.70;;;10.90;99.90;;;;;;4949129;28;20049;-89
2024/03/22 01:27:03;;;;;;;21.98;12.65;;;10.80;99.90;;;;;;4926897;28;20039;-90
2024/03/22 01:29:31;;;;;;;20.00;11.43;;;10.90;99.90;;;;;;4932520;28;20036;-90
2024/03/22 01:31:58;;;;;;;22.92;12.80;;;10.90;99.90;;;;;;4940238;28;20142;-89
2024/03/22 01:34:24;;;;;;;22.50;12.20;;;10.90;99.90;;;;;;4957772;28;20585;-88
2024/03/22 01:36:53;;;;;;;22.23;13.02;;;10.90;99.90;;;;;;4937602;28;20046;-90
2024/03/22 01:39:23;;;;;;;19.08;11.00;;;10.90;99.90;;;;;;4928514;28;20105;-89
2024/03/22 01:41:50;;;;;;;18.15;10.55;;;10.90;99.90;;;;;;4945267;28;20039;-90
2024/03/22 01:44:17;;;;;;;21.88;11.02;;;10.80;99.90;;;;;;4949199;28;20031;-90
2024/03/22 01:46:44;;;;;;;17.67;10.55;;;10.80;99.90;;;;;;4948814;29;20162;-89
2024/03/22 01:49:13;;;;;;;24.60;12.52;;;10.80;99.90;;;;;;4930200;28;20154;-90
2024/03/22 01:51:40;;;;;;;21.95;11.90;;;10.90;99.90;;;;;;4950611;28;20541;-89
2024/03/22 01:54:09;;;;;;;20.48;11.63;;;10.80;99.90;;;;;;4947966;28;20047;-89
2024/03/22 01:56:37;;;;;;;20.15;11.60;;;10.90;99.90;;;;;;4924242;28;20130;-89
2024/03/22 01:59:04;;;;;;;19.38;12.35;;;10.90;99.90;;;;;;4938243;28;20036;-89
2024/03/22 02:01:30;;;;;;;20.05;11.13;;;10.80;99.90;;;;;;4961078;28;20035;-89
2024/03/22 02:03:55;;;;;;;15.80;9.90;;;10.90;99.90;;;;;;4932168;29;20035;-89
2024/03/22 02:06:21;;;;;;;20.48;11.52;;;10.80;99.90;;;;;;4938697;28;20040;-89
2024/03/22 02:08:47;;;;;;;18.17;10.65;;;10.90;99.90;;;;;;4923512;28;20047;-89
2024/03/22 02:11:13;;;;;;;22.30;12.13;;;10.90;99.90;;;;;;4944507;28;20043;-89
2024/03/22 02:13:39;;;;;;;19.77;11.27;;;10.90;99.90;;;;;;4940039;28;20404;-89
2024/03/22 02:16:05;;;;;;;18.52;10.50;;;10.90;99.90;;;;;;4958876;28;20031;-89
2024/03/22 02:18:31;;;;;;;19.17;9.85;;;10.90;99.90;;;;;;4935798;28;20047;-90
2024/03/22 02:20:57;;;;;;;21.40;11.30;;;11.00;99.90;;;;;;4931196;28;20054;-90
2024/03/22 02:23:33;;;;;;;19.02;10.75;;;11.00;99.90;;;;;;4940487;28;20174;-88
2024/03/22 02:25:59;;;;;;;19.05;10.93;;;10.90;99.90;;;;;;4940726;28;20039;-90
2024/03/22 02:28:25;;;;;;;20.83;11.18;;;11.00;99.90;;;;;;4945372;28;20031;-90
2024/03/22 02:30:51;;;;;;;17.25;10.82;;;11.00;99.90;;;;;;4932028;28;20499;-89
2024/03/22 02:33:29;;;;;;;18.23;9.77;;;10.90;99.90;;;;;;5082184;27;20109;-90
2024/03/22 02:35:55;;;;;;;20.13;11.90;;;10.90;99.90;;;;;;5071198;28;20024;-91
2024/03/22 02:38:21;;;;;;;20.75;10.90;;;10.90;99.90;;;;;;5058092;28;20319;-91
2024/03/22 02:40:49;;;;;;;19.92;11.18;;;10.90;99.90;;;;;;5058056;28;20066;-90
2024/03/22 02:43:17;;;;;;;21.00;12.45;;;11.10;99.90;;;;;;5066390;28;20040;-91
2024/03/22 02:45:43;;;;;;;18.85;10.93;;;11.10;99.90;;;;;;5071030;28;20026;-90
2024/03/22 02:48:08;;;;;;;21.00;11.13;;;11.10;99.90;;;;;;5071793;28;20063;-91
2024/03/22 02:50:35;;;;;;;20.23;11.63;;;11.20;99.90;;;;;;5073522;28;20017;-90
2024/03/22 02:53:01;;;;;;;19.08;11.52;;;11.20;99.90;;;;;;5058242;28;20474;-90
2024/03/22 02:55:27;;;;;;;21.35;12.60;;;11.20;99.90;;;;;;5055847;28;20021;-89
2024/03/22 02:57:52;;;;;;;20.15;13.48;;;11.30;99.90;;;;;;5065138;28;20029;-91
2024/03/22 03:00:18;;;;;;;19.25;11.25;;;11.20;99.90;;;;;;5071663;28;20119;-90
2024/03/22 03:02:45;;;;;;;22.65;14.23;;;11.20;99.90;;;;;;5060931;28;20028;-90
2024/03/22 03:05:11;;;;;;;20.45;11.98;;;11.20;99.90;;;;;;5075846;28;20021;-90
2024/03/22 03:07:37;;;;;;;20.13;11.93;;;11.10;99.90;;;;;;5078448;28;20039;-91
2024/03/22 03:10:03;;;;;;;23.45;12.43;;;11.20;99.90;;;;;;5058309;28;20035;-90
2024/03/22 03:12:29;;;;;;;19.10;11.70;;;11.20;99.90;;;;;;5073333;28;20048;-91
2024/03/22 03:14:54;;;;;;;25.02;14.55;;;11.20;99.90;;;;;;5074711;28;20487;-91
2024/03/22 03:17:20;;;;;;;28.45;16.73;;;11.20;99.90;;;;;;5058881;28;20384;-91
2024/03/22 03:19:46;;;;;;;24.35;15.00;;;11.20;99.90;;;;;;5055704;28;20479;-90
2024/03/22 03:22:11;;;;;;;28.52;16.98;;;11.20;99.90;;;;;;5056316;28;20029;-90
2024/03/22 03:24:37;;;;;;;27.50;15.68;;;11.20;99.90;;;;;;5058878;28;20044;-90
2024/03/22 03:27:02;;;;;;;21.88;14.35;;;11.20;99.90;;;;;;5057634;28;20040;-90
2024/03/22 03:29:28;;;;;;;29.77;17.55;;;11.20;99.90;;;;;;5074156;28;20067;-89
2024/03/22 03:31:54;;;;;;;24.90;15.85;;;11.20;99.90;;;;;;5056332;28;20056;-90
2024/03/22 03:34:20;;;;;;;21.02;13.38;;;11.20;99.90;;;;;;5060361;28;20034;-91
2024/03/22 03:36:46;;;;;;;27.55;16.08;;;11.20;99.90;;;;;;5074719;28;20039;-91
2024/03/22 03:39:11;;;;;;;25.25;16.08;;;11.20;99.90;;;;;;5075257;28;20028;-93
2024/03/22 03:41:37;;;;;;;24.60;15.07;;;11.20;99.90;;;;;;5058329;28;20041;-90
2024/03/22 03:44:03;;;;;;;28.92;17.40;;;11.20;99.90;;;;;;5042842;28;20021;-90
2024/03/22 03:46:29;;;;;;;24.85;15.40;;;11.20;99.90;;;;;;5046101;28;20091;-91
2024/03/22 03:48:54;;;;;;;23.05;14.57;;;11.20;99.90;;;;;;5060361;28;20027;-92
2024/03/22 03:51:20;;;;;;;24.25;14.57;;;11.20;99.90;;;;;;5045920;28;20032;-90
2024/03/22 03:53:46;;;;;;;20.77;12.90;;;11.20;99.90;;;;;;5044569;28;20444;-91
2024/03/22 03:56:11;;;;;;;24.30;14.25;;;11.20;99.90;;;;;;5045244;28;20048;-90
2024/03/22 03:58:37;;;;;;;25.17;15.48;;;11.20;99.90;;;;;;5041495;28;20503;-90
2024/03/22 04:01:07;;;;;;;25.90;14.80;;;11.20;99.90;;;;;;5059532;28;20100;-90
2024/03/22 04:03:32;;;;;;;20.42;12.57;;;11.20;99.90;;;;;;5039291;28;20043;-90
2024/03/22 04:05:59;;;;;;;23.85;14.70;;;11.20;99.90;;;;;;5058524;28;20353;-92
2024/03/22 04:08:25;;;;;;;27.13;15.48;;;11.20;99.90;;;;;;5044863;28;20059;-90
2024/03/22 04:10:58;;;;;;;24.90;15.55;;;11.20;99.90;;;;;;5052895;28;20037;-91
2024/03/22 04:13:25;;;;;;;23.35;14.23;;;11.20;99.90;;;;;;5057147;28;20472;-91
2024/03/22 04:15:51;;;;;;;25.42;16.77;;;11.20;99.90;;;;;;5045058;28;20024;-90
2024/03/22 04:18:17;;;;;;;26.55;16.23;;;11.20;99.90;;;;;;5049193;28;20044;-92
2024/03/22 04:20:43;;;;;;;23.95;14.60;;;11.20;99.90;;;;;;5041324;28;20021;-91
2024/03/22 04:23:09;;;;;;;26.48;17.10;;;11.20;99.90;;;;;;5047823;28;20036;-90
2024/03/22 04:25:35;;;;;;;23.63;14.80;;;11.30;99.90;;;;;;5059432;28;20029;-91
2024/03/22 04:28:01;;;;;;;21.38;15.07;;;11.30;99.90;;;;;;5042252;28;20040;-91
2024/03/22 04:30:26;;;;;;;24.52;15.98;;;11.30;99.90;;;;;;5043174;28;20021;-87
2024/03/22 04:32:52;;;;;;;30.25;18.75;;;11.30;99.90;;;;;;5031466;28;20099;-92
2024/03/22 04:35:18;;;;;;;47.85;27.27;;;11.30;99.90;;;;;;5039677;28;20309;-91
2024/03/22 04:37:44;;;;;;;39.95;25.17;;;11.40;99.90;;;;;;5042320;28;20390;-90
2024/03/22 04:40:10;;;;;;;47.28;30.42;;;11.40;99.90;;;;;;5029360;28;20091;-91
2024/03/22 04:42:35;;;;;;;38.47;25.50;;;11.40;99.90;;;;;;5021298;28;20021;-90
2024/03/22 04:45:01;;;;;;;43.75;27.90;;;11.40;99.90;;;;;;5020975;28;20494;-90
2024/03/22 04:47:27;;;;;;;33.88;23.20;;;11.40;99.90;;;;;;5021403;28;20086;-88
2024/03/22 04:49:53;;;;;;;36.08;22.08;;;11.30;99.90;;;;;;5022860;28;20040;-91
2024/03/22 04:52:19;;;;;;;35.67;21.52;;;11.30;99.90;;;;;;5039524;28;20045;-91
2024/03/22 04:54:44;;;;;;;36.20;23.48;;;11.30;99.90;;;;;;5052885;28;20025;-90
2024/03/22 04:57:10;;;;;;;33.38;22.40;;;11.30;99.90;;;;;;5053538;28;20028;-92
2024/03/22 04:59:36;;;;;;;36.92;23.75;;;11.30;99.90;;;;;;5037353;28;20033;-90
2024/03/22 05:02:01;;;;;;;38.75;24.08;;;11.20;99.90;;;;;;5035311;28;20042;-90
2024/03/22 05:04:27;;;;;;;34.47;21.20;;;11.30;99.90;;;;;;5037959;28;20091;-90
2024/03/22 05:06:53;;;;;;;42.60;25.30;;;11.20;99.90;;;;;;5024526;28;20481;-90
2024/03/22 05:09:18;;;;;;;37.05;24.77;;;11.30;99.90;;;;;;5035166;28;20476;-90
2024/03/22 05:11:48;;;;;;;33.55;22.42;;;11.30;99.90;;;;;;5038828;28;20389;-90
2024/03/22 05:14:14;;;;;;;33.08;21.48;;;11.30;99.90;;;;;;5040311;28;20110;-91
2024/03/22 05:16:40;;;;;;;37.65;22.73;;;11.20;99.90;;;;;;5022732;28;20029;-90
2024/03/22 05:19:05;;;;;;;30.27;19.80;;;11.20;99.90;;;;;;5015555;28;20030;-91
2024/03/22 05:21:31;;;;;;;36.67;23.30;;;11.30;99.90;;;;;;5037253;28;20512;-91
2024/03/22 05:23:57;;;;;;;38.35;24.92;;;11.20;99.90;;;;;;5024520;28;20136;-90
2024/03/22 05:26:23;;;;;;;42.67;27.25;;;11.20;99.90;;;;;;5039208;28;20033;-93
2024/03/22 05:28:48;;;;;;;43.97;27.67;;;11.20;99.90;;;;;;5019539;28;20107;-91
2024/03/22 05:31:14;;;;;;;34.88;22.00;;;11.20;99.90;;;;;;5027520;28;20057;-90
2024/03/22 05:33:40;;;;;;;37.72;24.92;;;11.10;99.90;;;;;;5053454;28;20481;-90
2024/03/22 05:36:06;;;;;;;45.67;27.92;;;11.20;99.90;;;;;;5049135;28;20035;-92
2024/03/22 05:38:31;;;;;;;34.05;23.55;;;11.10;99.90;;;;;;5061865;28;20016;-90
2024/03/22 05:40:57;;;;;;;33.45;20.92;;;11.10;99.90;;;;;;5044045;28;20388;-91
2024/03/22 05:43:22;;;;;;;29.13;19.50;;;11.10;99.90;;;;;;5042885;28;20456;-90
2024/03/22 05:45:48;;;;;;;40.97;26.40;;;11.10;99.90;;;;;;5075770;28;20052;-92
2024/03/22 05:48:14;;;;;;;31.77;21.33;;;11.10;99.90;;;;;;5055967;28;20105;-92
2024/03/22 05:50:41;;;;;;;42.97;26.27;;;11.00;99.90;;;;;;5044862;28;20024;-92
2024/03/22 05:53:06;;;;;;;39.05;26.10;;;11.10;99.90;;;;;;5058513;28;20471;-90
2024/03/22 05:55:32;;;;;;;34.88;22.15;;;11.10;99.90;;;;;;5046341;28;20031;-90
2024/03/22 05:57:58;;;;;;;37.45;23.60;;;11.00;99.90;;;;;;5056715;28;20321;-90
2024/03/22 06:00:24;;;;;;;38.33;25.45;;;11.00;99.90;;;;;;5051719;28;20538;-91
2024/03/22 06:02:49;;;;;;;44.83;28.20;;;11.10;99.90;;;;;;5050669;28;20078;-92
2024/03/22 06:05:17;;;;;;;45.25;28.33;;;11.10;99.90;;;;;;5029107;28;20024;-90
2024/03/22 06:07:43;;;;;;;39.28;24.55;;;11.10;99.90;;;;;;5034537;28;20121;-92
2024/03/22 06:10:12;;;;;;;37.95;23.95;;;11.10;99.90;;;;;;5035635;28;20029;-91
2024/03/22 06:12:38;;;;;;;37.25;24.83;;;11.10;99.90;;;;;;5035492;28;20481;-91
2024/03/22 06:15:06;;;;;;;39.28;24.98;;;11.10;99.90;;;;;;5034214;28;20051;-91
2024/03/22 06:17:33;;;;;;;39.00;23.45;;;11.10;99.90;;;;;;5035088;28;20067;-91
2024/03/22 06:20:00;;;;;;;33.85;22.10;;;11.10;99.90;;;;;;5033482;28;20404;-91
2024/03/22 06:22:26;;;;;;;35.90;22.17;;;11.10;99.90;;;;;;5034751;28;20745;-89
2024/03/22 06:24:52;;;;;;;31.95;19.90;;;11.10;99.90;;;;;;5052994;28;20021;-91
2024/03/22 06:27:19;;;;;;;35.13;22.30;;;11.10;99.90;;;;;;5039322;28;20028;-91
2024/03/22 06:29:44;;;;;;;39.33;22.95;;;11.00;99.90;;;;;;5053516;28;20035;-90
2024/03/22 06:32:10;;;;;;;32.92;21.15;;;10.90;99.90;;;;;;5052446;28;20603;-92
2024/03/22 06:34:36;;;;;;;30.33;19.70;;;10.90;99.90;;;;;;5051176;28;20044;-92
2024/03/22 06:37:02;;;;;;;34.13;22.13;;;10.90;99.90;;;;;;5033176;28;20024;-90
2024/03/22 06:39:28;;;;;;;31.83;20.88;;;10.80;99.90;;;;;;5032270;28;20457;-89
2024/03/22 06:41:53;;;;;;;30.10;18.40;;;10.80;99.90;;;;;;5035700;28;20056;-91
2024/03/22 06:44:19;;;;;;;32.67;19.38;;;10.80;99.90;;;;;;5073945;28;20035;-91
2024/03/22 06:46:45;;;;;;;30.33;18.60;;;10.80;99.90;;;;;;5055368;28;20057;-91
2024/03/22 06:49:11;;;;;;;27.25;16.50;;;10.90;99.90;;;;;;5071365;28;20032;-92
2024/03/22 06:51:36;;;;;;;25.90;15.90;;;10.80;99.90;;;;;;5034742;28;20044;-90
2024/03/22 06:54:02;;;;;;;28.55;17.52;;;10.90;99.90;;;;;;5036865;28;20048;-90
2024/03/22 06:56:27;;;;;;;27.88;17.25;;;10.80;99.90;;;;;;5032317;28;20217;-90
2024/03/22 06:58:58;;;;;;;23.98;15.23;;;10.80;99.90;;;;;;5064902;28;20025;-93
2024/03/22 07:01:23;;;;;;;26.35;16.35;;;10.90;99.90;;;;;;5035401;28;20037;-90
2024/03/22 07:03:49;;;;;;;27.75;17.95;;;10.80;99.90;;;;;;5034607;28;20047;-90
2024/03/22 07:06:15;;;;;;;28.58;18.10;;;10.80;99.90;;;;;;5019692;28;20643;-88
2024/03/22 07:08:41;;;;;;;28.05;18.17;;;10.80;99.90;;;;;;5033487;28;20025;-89
2024/03/22 07:11:08;;;;;;;26.88;15.65;;;10.80;99.90;;;;;;5026824;28;20035;-89
2024/03/22 07:13:34;;;;;;;26.08;16.27;;;10.90;99.90;;;;;;5019471;28;20029;-88
2024/03/22 07:16:00;;;;;;;23.98;14.80;;;10.90;99.90;;;;;;5007118;28;20043;-88
2024/03/22 07:18:26;;;;;;;25.38;16.55;;;11.00;99.90;;;;;;5021240;28;20526;-92
2024/03/22 07:20:52;;;;;;;24.67;15.75;;;11.00;99.90;;;;;;5024795;28;20559;-90
2024/03/22 07:23:17;;;;;;;27.85;16.92;;;11.00;99.90;;;;;;5009621;28;20021;-91
2024/03/22 07:25:45;;;;;;;27.23;16.88;;;11.00;99.90;;;;;;5011562;28;20032;-87
2024/03/22 07:28:11;;;;;;;28.33;17.55;;;10.90;99.90;;;;;;5025162;28;20036;-89
2024/03/22 07:30:40;;;;;;;28.33;18.38;;;10.90;99.90;;;;;;5025753;28;20088;-90
2024/03/22 07:33:06;;;;;;;23.80;16.00;;;10.90;99.90;;;;;;5023781;28;20118;-87
2024/03/22 07:35:31;;;;;;;27.35;18.10;;;11.00;99.90;;;;;;5011148;28;20048;-89
2024/03/22 07:37:57;;;;;;;27.70;17.25;;;11.10;99.90;;;;;;5027925;28;20469;-88
2024/03/22 07:40:22;;;;;;;28.48;18.00;;;11.20;99.90;;;;;;5030884;28;20024;-88
2024/03/22 07:42:48;;;;;;;25.70;18.23;;;11.30;99.90;;;;;;5026059;28;21756;-87
2024/03/22 07:45:14;;;;;;;30.67;18.85;;;11.30;99.90;;;;;;5040943;28;20175;-88
2024/03/22 07:47:42;;;;;;;28.33;17.48;;;11.30;99.90;;;;;;5030126;28;20028;-89
2024/03/22 07:50:08;;;;;;;25.40;17.42;;;11.30;99.90;;;;;;5022791;28;20033;-89
2024/03/22 07:52:34;;;;;;;23.65;15.23;;;11.40;99.90;;;;;;5013718;28;20063;-87
2024/03/22 07:55:02;;;;;;;26.27;17.85;;;11.40;99.90;;;;;;5042779;28;20741;-89
2024/03/22 07:57:30;;;;;;;26.77;18.05;;;11.30;99.90;;;;;;5025215;28;20060;-87
2024/03/22 07:59:57;;;;;;;29.25;18.00;;;11.30;99.90;;;;;;5042176;28;21225;-88
2024/03/22 08:02:23;;;;;;;27.38;18.45;;;11.20;99.90;;;;;;5019187;28;20147;-88
2024/03/22 08:04:49;;;;;;;23.77;16.17;;;11.30;99.90;;;;;;5005886;28;20049;-89
2024/03/22 08:07:14;;;;;;;30.00;20.10;;;11.30;99.90;;;;;;4984963;28;20040;-87
2024/03/22 08:09:40;;;;;;;28.92;19.02;;;11.20;99.90;;;;;;4999006;28;21208;-88
2024/03/22 08:12:06;;;;;;;30.20;19.13;;;11.20;99.90;;;;;;4982719;28;20474;-88
2024/03/22 08:14:32;;;;;;;28.42;18.00;;;11.20;99.90;;;;;;4998920;28;20080;-88
2024/03/22 08:16:58;;;;;;;27.05;17.50;;;11.20;99.90;;;;;;4982920;28;20119;-89
2024/03/22 08:19:23;;;;;;;30.67;19.25;;;11.30;99.90;;;;;;4976936;28;20030;-88
2024/03/22 08:21:49;;;;;;;29.65;18.83;;;11.30;99.90;;;;;;4976568;28;20038;-87
2024/03/22 08:24:14;;;;;;;28.15;17.95;;;11.20;99.90;;;;;;4975122;28;20037;-88
2024/03/22 08:26:40;;;;;;;30.73;19.80;;;11.40;99.90;;;;;;4992740;28;20075;-87
2024/03/22 08:29:06;;;;;;;29.00;19.25;;;11.30;99.90;;;;;;4976551;28;20029;-90
2024/03/22 08:31:32;;;;;;;31.92;19.40;;;11.30;99.90;;;;;;4992116;28;20572;-86
2024/03/22 08:33:58;;;;;;;32.42;18.77;;;11.30;99.90;;;;;;4993171;28;20251;-89
2024/03/22 08:36:24;;;;;;;32.70;19.77;;;11.30;99.90;;;;;;4977088;28;20807;-90
2024/03/22 08:38:50;;;;;;;31.35;19.70;;;11.30;99.90;;;;;;4979597;28;20512;-91
2024/03/22 08:41:16;;;;;;;30.35;18.88;;;11.30;99.90;;;;;;4993073;28;20038;-88
2024/03/22 08:43:41;;;;;;;28.60;19.83;;;11.30;99.90;;;;;;4976758;28;20737;-91
2024/03/22 08:46:07;;;;;;;31.15;20.85;;;11.20;99.90;;;;;;4974734;28;20218;-91
2024/03/22 08:48:33;;;;;;;29.27;18.00;;;11.20;99.90;;;;;;4975117;28;20041;-87
2024/03/22 08:50:59;;;;;;;32.85;22.00;;;11.30;99.90;;;;;;4990511;28;20130;-88
2024/03/22 08:53:24;;;;;;;29.50;19.25;;;11.10;99.90;;;;;;4974652;28;20144;-89
2024/03/22 08:55:50;;;;;;;33.75;21.35;;;11.20;99.90;;;;;;4978849;28;20041;-88
2024/03/22 08:58:17;;;;;;;42.60;22.30;;;11.10;99.90;;;;;;4978788;28;20091;-87
2024/03/22 09:00:44;;;;;;;39.45;23.10;;;11.10;99.90;;;;;;4995190;28;20039;-87
2024/03/22 09:03:10;;;;;;;29.40;19.80;;;11.10;99.90;;;;;;4995163;28;21033;-89
2024/03/22 09:05:36;;;;;;;34.50;22.70;;;11.20;99.90;;;;;;4976242;28;20230;-88
2024/03/22 09:08:03;;;;;;;33.60;22.08;;;11.20;99.90;;;;;;4983514;28;20037;-88
2024/03/22 09:10:29;;;;;;;38.65;23.63;;;11.20;99.90;;;;;;4991189;28;20064;-88
2024/03/22 09:12:58;;;;;;;39.70;24.58;;;11.10;99.90;;;;;;4973814;28;20167;-89
2024/03/22 09:15:24;;;;;;;32.22;20.23;;;11.10;99.90;;;;;;4975993;28;20044;-89
2024/03/22 09:17:52;;;;;;;36.90;24.13;;;11.20;99.90;;;;;;4975516;28;20540;-87
2024/03/22 09:20:18;;;;;;;38.72;24.08;;;11.20;99.90;;;;;;4976629;28;20095;-89
2024/03/22 09:22:43;;;;;;;35.60;22.33;;;11.10;99.90;;;;;;4992277;28;20041;-88
2024/03/22 09:25:09;;;;;;;32.65;22.45;;;11.10;99.90;;;;;;4993097;28;20022;-91
2024/03/22 09:27:35;;;;;;;42.17;24.35;;;11.10;99.90;;;;;;4987593;28;20160;-90
2024/03/22 09:30:01;;;;;;;33.20;21.67;;;11.10;99.90;;;;;;4989907;28;20438;-89
2024/03/22 09:32:42;;;;;;;34.75;23.05;;;11.10;99.90;;;;;;4978188;28;20136;-95
2024/03/22 09:35:08;;;;;;;37.40;23.98;;;11.10;99.90;;;;;;4984212;28;20033;-89
2024/03/22 09:37:34;;;;;;;38.72;22.48;;;11.10;99.90;;;;;;4972132;28;20619;-92
2024/03/22 09:40:00;;;;;;;40.28;23.88;;;11.10;99.90;;;;;;4972401;28;20030;-88
2024/03/22 09:42:27;;;;;;;35.20;21.90;;;11.10;99.90;;;;;;4990579;28;20064;-89
2024/03/22 09:44:53;;;;;;;33.63;22.63;;;11.10;99.90;;;;;;4991078;28;20060;-88
2024/03/22 09:47:20;;;;;;;38.60;24.23;;;11.10;99.90;;;;;;4991549;28;20034;-89
2024/03/22 09:49:48;;;;;;;37.47;24.27;;;11.10;99.90;;;;;;5008685;28;20495;-90
2024/03/22 09:52:15;;;;;;;37.08;23.15;;;11.00;99.90;;;;;;4991642;28;20096;-90
2024/03/22 09:54:44;;;;;;;36.65;22.83;;;11.10;99.90;;;;;;4990488;28;21042;-91
2024/03/22 09:57:15;;;;;;;33.28;21.83;;;11.10;99.90;;;;;;5006504;28;20296;-88
2024/03/22 09:59:42;;;;;;;33.72;21.13;;;11.10;99.90;;;;;;4973164;28;20056;-88
2024/03/22 10:02:11;;;;;;;35.75;22.13;;;11.20;99.90;;;;;;4979528;28;20121;-91
2024/03/22 10:04:37;;;;;;;38.72;22.35;;;11.00;99.90;;;;;;4973032;28;20033;-85
2024/03/22 10:07:03;;;;;;;34.10;22.20;;;11.10;99.90;;;;;;4989920;28;20044;-93
2024/03/22 10:09:30;;;;;;;29.95;20.65;;;11.10;99.90;;;;;;4974705;28;20032;-89
2024/03/22 10:11:56;;;;;;;32.83;20.63;;;11.10;99.90;;;;;;4997185;28;20133;-89
2024/03/22 10:14:24;;;;;;;39.53;24.48;;;11.10;99.90;;;;;;4983221;28;20065;-92
2024/03/22 10:16:53;;;;;;;32.58;22.55;;;11.10;99.90;;;;;;4993584;28;20044;-89
2024/03/22 10:19:22;;;;;;;30.30;20.85;;;11.00;99.90;;;;;;4992921;28;20162;-88
2024/03/22 10:21:58;;;;;;;30.60;18.95;;;11.10;99.90;;;;;;4975580;28;20528;-87
2024/03/22 10:24:24;;;;;;;30.83;20.58;;;11.10;99.90;;;;;;4978468;28;20044;-87
2024/03/22 10:26:50;;;;;;;30.30;19.90;;;11.10;99.90;;;;;;4980386;28;20082;-85
2024/03/22 10:29:16;;;;;;;30.10;19.88;;;11.00;99.90;;;;;;4978668;28;20037;-93
2024/03/22 10:31:42;;;;;;;34.30;20.08;;;11.00;99.90;;;;;;4972993;28;20061;-88
2024/03/22 10:34:11;;;;;;;34.58;20.75;;;11.00;99.90;;;;;;4991128;28;20033;-87
2024/03/22 10:36:36;;;;;;;27.45;19.30;;;11.00;99.90;;;;;;4992116;28;20040;-89
2024/03/22 10:39:04;;;;;;;29.65;21.05;;;11.00;99.90;;;;;;4992882;28;20028;-90
2024/03/22 10:41:29;;;;;;;33.72;20.25;;;10.90;99.90;;;;;;4989591;28;20514;-92
2024/03/22 10:43:58;;;;;;;31.55;20.45;;;10.80;99.90;;;;;;4996973;28;20498;-90
2024/03/22 10:46:29;;;;;;;30.38;19.67;;;10.90;99.90;;;;;;4993910;28;20384;-93
2024/03/22 10:48:56;;;;;;;32.63;21.27;;;10.90;99.90;;;;;;4990648;28;20114;-89
2024/03/22 10:51:24;;;;;;;31.98;20.92;;;10.90;99.90;;;;;;4973911;28;20080;-90
2024/03/22 10:53:51;;;;;;;36.08;20.92;;;10.90;99.90;;;;;;4980858;28;20037;-89
2024/03/22 10:56:17;;;;;;;29.42;19.08;;;11.00;99.90;;;;;;4980547;28;20037;-91
2024/03/22 10:58:43;;;;;;;36.90;22.45;;;11.00;99.90;;;;;;4979322;28;20518;-90
2024/03/22 11:01:25;;;;;;;35.40;23.10;;;10.80;99.90;;;;;;4974503;28;20033;-91
2024/03/22 11:03:51;;;;;;;33.70;21.55;;;10.80;99.90;;;;;;4977620;28;20109;-91
2024/03/22 11:06:22;;;;;;;38.35;22.80;;;10.90;99.90;;;;;;4994240;28;20048;-87
2024/03/22 11:08:51;;;;;;;37.20;23.92;;;10.80;99.90;;;;;;4980777;28;20068;-89
2024/03/22 11:11:21;;;;;;;35.40;22.42;;;10.80;99.90;;;;;;4979668;28;20180;-91
2024/03/22 11:13:48;;;;;;;30.40;20.20;;;10.90;99.90;;;;;;4977895;28;20052;-91
2024/03/22 11:16:15;;;;;;;40.33;22.85;;;10.90;99.90;;;;;;4982805;28;20543;-88
2024/03/22 11:18:41;;;;;;;39.15;24.60;;;10.90;99.90;;;;;;4994137;28;20029;-88
2024/03/22 11:21:08;;;;;;;37.20;23.33;;;10.80;99.90;;;;;;4980788;28;20048;-94
2024/03/22 11:23:36;;;;;;;40.05;24.85;;;10.90;99.90;;;;;;4983689;28;20193;-91
2024/03/22 11:26:03;;;;;;;38.63;24.30;;;10.80;99.90;;;;;;4993359;28;20040;-92
2024/03/22 11:28:32;;;;;;;41.45;26.25;;;10.80;99.90;;;;;;4975104;28;20557;-92
2024/03/22 11:30:58;;;;;;;34.13;23.33;;;10.80;99.90;;;;;;4989124;28;20107;-89
2024/03/22 11:33:24;;;;;;;31.52;22.13;;;10.80;99.90;;;;;;4977547;28;20053;-88
2024/03/22 11:35:49;;;;;;;33.72;22.23;;;10.80;99.90;;;;;;4997233;28;20030;-89
2024/03/22 11:38:16;;;;;;;38.92;23.77;;;10.80;99.90;;;;;;4980906;28;20043;-89
2024/03/22 11:40:43;;;;;;;32.08;21.73;;;10.80;99.90;;;;;;4986677;28;20033;-91
2024/03/22 11:43:10;;;;;;;36.25;21.55;;;10.90;99.90;;;;;;4993834;28;20068;-91
2024/03/22 11:45:37;;;;;;;31.20;20.48;;;11.00;99.90;;;;;;4992964;28;20080;-88
2024/03/22 11:48:03;;;;;;;34.08;22.27;;;11.00;99.90;;;;;;4978866;28;20056;-84
2024/03/22 11:50:29;;;;;;;30.00;19.55;;;10.80;99.90;;;;;;4995174;28;20044;-89
2024/03/22 11:52:56;;;;;;;26.45;18.95;;;10.90;99.90;;;;;;4996417;28;20037;-85
2024/03/22 11:55:22;;;;;;;28.23;17.88;;;10.90;99.90;;;;;;4981159;28;20468;-84
2024/03/22 11:57:51;;;;;;;27.75;18.75;;;11.00;99.90;;;;;;4978206;28;20421;-86
2024/03/22 12:00:22;;;;;;;25.40;18.25;;;11.00;99.90;;;;;;4992900;28;20161;-88
2024/03/22 12:02:48;;;;;;;27.35;16.88;;;11.00;99.90;;;;;;4978377;28;20109;-87
2024/03/22 12:05:14;;;;;;;24.23;15.18;;;11.00;99.90;;;;;;4993285;28;20201;-88
2024/03/22 12:07:40;;;;;;;23.77;16.40;;;11.00;99.90;;;;;;4983451;28;20041;-88
2024/03/22 12:10:06;;;;;;;23.33;15.90;;;11.10;99.90;;;;;;4990787;28;20103;-89
2024/03/22 12:12:32;;;;;;;21.30;15.65;;;11.10;99.90;;;;;;4970806;28;20502;-88
2024/03/22 12:14:58;;;;;;;20.55;13.63;;;11.10;99.90;;;;;;4993973;28;20095;-87
2024/03/22 12:17:23;;;;;;;17.73;12.50;;;11.10;99.90;;;;;;4977656;28;20119;-87
2024/03/22 12:19:49;;;;;;;18.45;13.50;;;11.10;99.90;;;;;;4993161;28;20026;-88
2024/03/22 12:22:15;;;;;;;19.98;15.85;;;11.20;99.90;;;;;;4978484;28;21151;-87
2024/03/22 12:24:42;;;;;;;18.48;13.35;;;11.10;99.90;;;;;;4994764;28;20713;-88